METAR Data
IDs: Format: Raw Decoded Include TAF

Data at: 0127 UTC 24 Sep 2018

METAR for:KDAB (Daytona Beach Intl, FL, US)
Text:KDAB 240053Z 08005KT 10SM FEW030 27/23 A3001 RMK AO2 SLP161 T02670228
Temperature: 26.7°C ( 80°F)
Dewpoint: 22.8°C ( 73°F) [RH = 79%]
Pressure (altimeter):30.01 inches Hg (1016.3 mb) [Sea level pressure: 1016.1 mb]
Winds:from the E (80 degrees) at 6 MPH (5 knots; 2.6 m/s)
Visibility:10 or more sm (16+ km)
Ceiling:at least 12,000 feet AGL
Clouds: few clouds at 3000 feet AGL